Time;durP1;ratioP1;P1;durP2;ratioP2;P2;SDS_P1;SDS_P2;PMS_P1;PMS_P2;Temp;Humidity;BMP_temperature;BMP_pressure;BME280_temperature;BME280_humidity;BME280_pressure;Samples;Min_cycle;Max_cycle;Signal;HPM_P1;HPM_P2
2023/08/27 00:01:28;;;;;;;4.65;2.90;;;;;;;19.01;86.58;98383.06;4890324;29;20048;-80
2023/08/27 00:04:12;;;;;;;4.20;3.08;;;;;;;19.48;86.10;98374.00;4883927;29;20096;-80
2023/08/27 00:06:56;;;;;;;3.05;2.80;;;;;;;19.03;86.26;98386.25;4884688;29;20067;-81
2023/08/27 00:09:40;;;;;;;3.00;2.70;;;;;;;19.41;85.73;98386.75;4883533;29;20048;-80
2023/08/27 00:12:24;;;;;;;3.00;2.70;;;;;;;19.20;86.18;98378.81;4886236;29;20107;-81
2023/08/27 00:15:08;;;;;;;3.70;2.95;;;;;;;19.33;86.24;98379.34;4886211;29;20055;-79
2023/08/27 00:17:52;;;;;;;3.65;2.78;;;;;;;19.37;85.21;98377.72;4889871;29;20113;-80
2023/08/27 00:20:36;;;;;;;2.95;2.60;;;;;;;19.63;84.62;98375.00;4887465;29;20044;-80
2023/08/27 00:23:20;;;;;;;5.80;2.42;;;;;;;19.59;84.64;98381.94;4886793;29;20052;-80
2023/08/27 00:26:04;;;;;;;2.90;2.50;;;;;;;19.62;83.26;98365.44;4884134;29;20092;-80
2023/08/27 00:28:48;;;;;;;2.83;2.40;;;;;;;19.46;83.96;98370.81;4887257;29;20047;-80
2023/08/27 00:31:32;;;;;;;2.72;2.50;;;;;;;19.00;85.58;98365.53;4889609;29;20079;-80
2023/08/27 00:34:16;;;;;;;4.53;2.53;;;;;;;19.03;85.41;98359.66;4885400;29;20055;-80
2023/08/27 00:37:01;;;;;;;5.55;2.83;;;;;;;18.93;85.37;98353.28;4883153;29;20444;-80
2023/08/27 00:39:45;;;;;;;2.90;2.47;;;;;;;19.09;85.24;98355.97;4889108;29;20052;-80
2023/08/27 00:42:29;;;;;;;4.35;2.60;;;;;;;18.91;85.41;98367.88;4885438;29;20525;-80
2023/08/27 00:45:14;;;;;;;3.58;2.47;;;;;;;19.07;85.97;98355.44;4890647;29;20128;-80
2023/08/27 00:47:58;;;;;;;2.90;2.58;;;;;;;18.92;85.80;98354.34;4888128;29;20128;-80
2023/08/27 00:50:42;;;;;;;2.58;2.33;;;;;;;18.77;85.82;98351.66;4883002;29;20048;-79
2023/08/27 00:53:27;;;;;;;3.10;2.58;;;;;;;18.97;86.02;98358.88;4891242;29;20608;-80
2023/08/27 00:56:11;;;;;;;2.95;2.65;;;;;;;18.79;86.47;98361.00;4883566;29;20503;-79
2023/08/27 00:58:55;;;;;;;3.38;2.85;;;;;;;18.96;86.32;98357.25;4886901;29;20119;-80
2023/08/27 01:01:39;;;;;;;4.63;2.80;;;;;;;19.07;86.92;98363.41;4882091;29;20048;-79
2023/08/27 01:04:23;;;;;;;4.30;3.15;;;;;;;19.07;86.79;98361.53;4887325;29;20039;-80
2023/08/27 01:07:36;;;;;;;4.00;3.22;;;;;;;19.08;86.47;98355.16;4887001;29;20535;-79
2023/08/27 01:10:51;;;;;;;4.10;3.53;;;;;;;18.84;87.28;98352.19;4879531;29;20048;-80
2023/08/27 01:13:44;;;;;;;5.18;3.97;;;;;;;18.21;88.18;98355.84;4887659;29;20092;-79
2023/08/27 01:16:29;;;;;;;3.72;2.90;;;;;;;18.35;88.28;98341.00;4889441;29;20064;-79
2023/08/27 01:19:15;;;;;;;3.90;3.15;;;;;;;18.33;87.97;98337.00;4887315;29;20052;-79
2023/08/27 01:21:59;;;;;;;3.72;3.25;;;;;;;18.18;88.39;98333.28;4887747;29;20177;-80
2023/08/27 01:24:43;;;;;;;3.33;2.88;;;;;;;18.09;88.18;98330.31;4889730;29;20062;-80
2023/08/27 01:27:31;;;;;;;3.83;3.13;;;;;;;18.38;87.96;98335.16;4885273;29;20051;-79
2023/08/27 01:30:19;;;;;;;5.32;3.17;;;;;;;18.34;87.70;98325.31;4890103;29;20104;-79
2023/08/27 01:33:10;;;;;;;4.90;2.85;;;;;;;18.63;87.42;98332.78;4885905;29;20555;-80
2023/08/27 01:35:57;;;;;;;4.60;3.30;;;;;;;18.69;86.90;98329.06;4888440;29;20047;-80
2023/08/27 01:38:41;;;;;;;5.80;3.28;;;;;;;18.55;87.58;98328.81;4890050;29;20044;-81
2023/08/27 01:41:25;;;;;;;3.92;3.50;;;;;;;18.52;88.08;98339.97;4882531;29;20415;-80
2023/08/27 01:44:09;;;;;;;3.80;3.30;;;;;;;18.41;87.95;98329.31;4891191;29;20055;-80
2023/08/27 01:46:53;;;;;;;4.15;3.60;;;;;;;18.40;87.74;98333.03;4889786;29;20478;-80
2023/08/27 01:49:37;;;;;;;5.95;3.70;;;;;;;18.23;88.37;98332.47;4890981;29;20410;-80
2023/08/27 01:52:21;;;;;;;3.97;2.90;;;;;;;18.26;88.79;98334.59;4885489;29;20047;-80
2023/08/27 01:55:06;;;;;;;3.50;3.00;;;;;;;18.29;88.58;98325.31;4886028;29;20056;-80
2023/08/27 01:57:50;;;;;;;5.30;3.50;;;;;;;18.39;88.39;98323.47;4887536;29;20047;-80
2023/08/27 02:00:34;;;;;;;3.65;2.95;;;;;;;18.31;88.59;98324.00;4887007;29;20112;-80
2023/08/27 02:03:18;;;;;;;;;;;;;;;18.08;88.75;98328.72;4891610;29;20107;-80
2023/08/27 02:06:03;;;;;;;3.70;2.80;;;;;;;18.40;89.30;98319.75;4889215;29;20412;-81
2023/08/27 02:08:47;;;;;;;2.80;2.58;;;;;;;18.23;88.86;98305.91;4889561;29;20052;-81
2023/08/27 02:11:31;;;;;;;3.05;2.58;;;;;;;18.55;87.75;98318.16;4890297;29;20043;-81
2023/08/27 02:14:15;;;;;;;3.42;2.38;;;;;;;18.61;87.74;98317.09;4884584;29;20108;-79
2023/08/27 02:16:59;;;;;;;3.13;2.40;;;;;;;18.28;88.71;98319.22;4884933;29;20083;-79
2023/08/27 02:19:43;;;;;;;4.68;2.72;;;;;;;18.66;87.69;98319.75;4888715;29;20122;-79
2023/08/27 02:22:27;;;;;;;2.60;2.00;;;;;;;18.75;87.30;98317.38;4885335;29;20049;-79
2023/08/27 02:25:11;;;;;;;4.72;2.65;;;;;;;18.68;87.18;98312.34;4887787;29;20067;-80
2023/08/27 02:27:55;;;;;;;2.85;2.50;;;;;;;18.51;87.53;98295.84;4887044;29;20052;-79
2023/08/27 02:30:39;;;;;;;2.75;2.28;;;;;;;18.50;87.43;98315.50;4884293;29;20055;-79
2023/08/27 02:33:23;;;;;;;5.00;2.40;;;;;;;18.78;86.90;98321.38;4886472;29;20108;-79
2023/08/27 02:36:07;;;;;;;3.63;2.45;;;;;;;18.48;87.28;98307.00;4891577;29;20067;-79
2023/08/27 02:38:52;;;;;;;5.43;2.35;;;;;;;18.12;88.26;98321.81;4883913;29;20063;-80
2023/08/27 02:41:36;;;;;;;3.40;2.30;;;;;;;18.17;88.38;98318.38;4889717;29;20039;-79
2023/08/27 02:44:20;;;;;;;3.00;2.22;;;;;;;18.21;88.51;98323.97;4888472;29;20043;-79
2023/08/27 02:47:04;;;;;;;6.32;2.10;;;;;;;18.04;88.57;98319.66;4891054;29;20047;-79
2023/08/27 02:49:49;;;;;;;3.63;2.38;;;;;;;18.02;87.99;98321.78;4885276;29;20051;-80
2023/08/27 02:52:33;;;;;;;3.38;2.45;;;;;;;17.91;89.18;98318.28;4890015;29;20047;-79
2023/08/27 02:55:17;;;;;;;3.55;1.88;;;;;;;18.18;88.28;98319.16;4887760;29;20063;-81
2023/08/27 02:58:02;;;;;;;2.30;1.80;;;;;;;17.99;88.56;98316.97;4885428;29;20562;-80
2023/08/27 03:00:46;;;;;;;2.10;2.00;;;;;;;18.15;88.64;98319.69;4885490;29;20040;-79
2023/08/27 03:03:30;;;;;;;3.65;2.25;;;;;;;18.08;88.82;98320.75;4890356;29;20108;-80
2023/08/27 03:06:14;;;;;;;2.15;1.95;;;;;;;18.00;88.11;98323.88;4882281;29;20081;-80
2023/08/27 03:08:58;;;;;;;2.78;1.92;;;;;;;18.00;89.22;98313.25;4890137;29;20454;-80
2023/08/27 03:11:42;;;;;;;2.20;2.00;;;;;;;18.13;88.66;98310.13;4890512;29;20044;-80
2023/08/27 03:14:26;;;;;;;2.33;2.13;;;;;;;18.15;88.42;98309.06;4887077;29;20391;-79
2023/08/27 03:17:10;;;;;;;4.13;2.20;;;;;;;17.75;88.43;98312.13;4888819;29;20535;-81
2023/08/27 03:19:54;;;;;;;3.45;1.90;;;;;;;17.97;89.09;98308.47;4889810;29;20051;-79
2023/08/27 03:22:38;;;;;;;2.38;2.17;;;;;;;17.97;88.75;98303.16;4885205;29;20067;-80
2023/08/27 03:25:22;;;;;;;4.50;2.50;;;;;;;17.98;88.35;98310.88;4887380;29;20055;-79
2023/08/27 03:28:06;;;;;;;2.85;2.22;;;;;;;17.77;88.32;98320.63;4883529;29;20083;-79
2023/08/27 03:30:50;;;;;;;4.22;2.67;;;;;;;17.69;89.29;98323.78;4883195;29;20099;-79
2023/08/27 03:33:34;;;;;;;2.88;2.65;;;;;;;18.03;89.47;98322.59;4894870;29;20531;-79
2023/08/27 03:36:18;;;;;;;7.00;3.47;;;;;;;17.66;89.69;98324.28;4887873;29;20102;-79
2023/08/27 03:39:02;;;;;;;6.97;4.50;;;;;;;17.81;89.93;98321.69;4889142;29;20083;-80
2023/08/27 03:41:46;;;;;;;7.45;5.47;;;;;;;17.85;89.76;98296.22;4882082;29;20132;-78
2023/08/27 03:44:30;;;;;;;8.43;5.60;;;;;;;18.02;89.76;98316.47;4888567;29;20120;-79
2023/08/27 03:47:14;;;;;;;8.63;6.72;;;;;;;18.09;89.95;98322.34;4887191;29;20042;-78
2023/08/27 03:49:58;;;;;;;10.30;7.55;;;;;;;17.98;89.99;98315.38;4883434;29;20120;-80
2023/08/27 03:52:41;;;;;;;14.07;9.25;;;;;;;17.78;90.70;98314.25;4884845;29;20047;-80
2023/08/27 03:55:25;;;;;;;14.38;11.18;;;;;;;17.73;91.78;98318.72;4889484;29;20036;-79
2023/08/27 03:58:10;;;;;;;16.75;11.15;;;;;;;17.73;92.22;98316.88;4885782;29;20036;-79
2023/08/27 04:00:54;;;;;;;14.45;10.75;;;;;;;18.06;92.66;98322.84;4887252;29;20044;-78
2023/08/27 04:03:39;;;;;;;15.30;11.20;;;;;;;17.76;93.44;98312.91;4883618;29;20040;-80
2023/08/27 04:06:23;;;;;;;16.75;12.45;;;;;;;17.83;93.15;98316.91;4887848;29;20128;-79
2023/08/27 04:09:07;;;;;;;13.80;10.63;;;;;;;17.62;94.06;98315.22;4882425;29;20120;-79
2023/08/27 04:11:51;;;;;;;15.68;11.75;;;;;;;17.54;94.03;98308.56;4885028;29;20065;-80
2023/08/27 04:14:35;;;;;;;17.73;11.65;;;;;;;17.83;93.62;98316.91;4887131;29;20067;-80
2023/08/27 04:17:19;;;;;;;15.85;10.60;;;;;;;17.54;94.63;98306.72;4885670;29;20039;-80
2023/08/27 04:20:03;;;;;;;17.13;10.73;;;;;;;17.74;94.48;98315.81;4892113;29;20101;-80
2023/08/27 04:22:47;;;;;;;15.48;10.70;;;;;;;17.65;94.73;98317.38;4885594;29;20508;-79
2023/08/27 04:25:31;;;;;;;14.80;10.65;;;;;;;17.63;94.72;98314.19;4892351;29;20052;-80
2023/08/27 04:28:15;;;;;;;13.88;10.82;;;;;;;17.87;93.66;98311.06;4890822;29;20507;-80
2023/08/27 04:30:59;;;;;;;14.80;10.27;;;;;;;17.63;94.05;98314.19;4886778;29;20123;-80
2023/08/27 04:33:45;;;;;;;16.70;10.95;;;;;;;17.77;93.77;98304.69;4883854;29;20068;-80
2023/08/27 04:36:29;;;;;;;19.20;10.82;;;;;;;17.45;95.27;98316.22;4889028;29;20120;-80
2023/08/27 04:39:13;;;;;;;17.70;10.55;;;;;;;17.41;95.08;98329.22;4883525;29;20047;-81
2023/08/27 04:41:58;;;;;;;16.55;10.95;;;;;;;17.50;95.64;98320.75;4887855;29;20048;-81
2023/08/27 04:44:42;;;;;;;19.67;11.75;;;;;;;17.52;95.83;98314.16;4889153;29;20069;-80
2023/08/27 04:47:26;;;;;;;19.83;11.15;;;;;;;17.72;95.19;98309.97;4892168;29;20074;-80
2023/08/27 04:50:10;;;;;;;16.35;11.13;;;;;;;17.80;94.84;98314.00;4887759;29;20467;-79
2023/08/27 04:52:54;;;;;;;17.88;11.68;;;;;;;17.98;94.24;98315.38;4891860;29;20411;-78
2023/08/27 04:55:38;;;;;;;19.30;11.95;;;;;;;18.05;93.52;98315.94;4892988;29;20047;-79
2023/08/27 04:58:22;;;;;;;18.70;10.95;;;;;;;18.10;93.71;98321.28;4891263;29;20119;-80
2023/08/27 05:01:08;;;;;;;16.17;10.05;;;;;;;18.12;93.58;98327.13;4887222;29;20095;-82
2023/08/27 05:03:52;;;;;;;19.02;10.43;;;;;;;18.00;93.58;98318.56;4884511;29;20055;-78
2023/08/27 05:06:37;;;;;;;16.15;10.18;;;;;;;18.00;94.01;98323.88;4891596;29;20052;-79
2023/08/27 05:09:21;;;;;;;16.55;9.63;;;;;;;18.18;93.78;98324.50;4886122;29;20048;-79
2023/08/27 05:12:05;;;;;;;17.30;10.32;;;;;;;18.18;93.70;98319.16;4887212;29;20139;-78
2023/08/27 05:14:49;;;;;;;17.60;10.95;;;;;;;18.60;92.60;98315.50;4889190;29;20068;-79
2023/08/27 05:17:33;;;;;;;16.35;9.85;;;;;;;18.64;92.47;98313.13;4886773;29;20736;-80
2023/08/27 05:20:17;;;;;;;18.80;10.85;;;;;;;18.62;92.40;98323.22;4886628;29;20051;-79
2023/08/27 05:23:01;;;;;;;18.45;11.15;;;;;;;18.59;92.98;98324.53;4889694;29;20085;-79
2023/08/27 05:25:45;;;;;;;18.05;10.98;;;;;;;18.80;91.50;98321.88;4887208;29;20121;-78
2023/08/27 05:28:29;;;;;;;18.00;10.98;;;;;;;18.15;94.58;98325.78;4888200;29;20537;-79
2023/08/27 05:31:13;;;;;;;26.02;13.27;;;;;;;18.41;95.16;98318.69;4887022;29;20513;-78
2023/08/27 05:33:57;;;;;;;24.65;12.68;;;;;;;18.56;94.91;98325.06;4887595;29;20048;-79
2023/08/27 05:36:41;;;;;;;24.15;14.82;;;;;;;18.62;95.57;98317.91;4885426;29;20096;-79
2023/08/27 05:39:25;;;;;;;28.60;16.33;;;;;;;19.04;94.96;98324.03;4886007;29;20097;-81
2023/08/27 05:42:09;;;;;;;22.35;15.07;;;;;;;19.35;94.29;98334.63;4886390;29;20048;-80
2023/08/27 05:44:53;;;;;;;26.67;16.25;;;;;;;19.35;94.77;98323.97;4885867;29;20108;-80
2023/08/27 05:47:37;;;;;;;28.45;16.15;;;;;;;19.61;94.52;98337.22;4890268;29;20048;-79
2023/08/27 05:50:21;;;;;;;26.38;16.50;;;;;;;19.80;95.08;98327.56;4888604;29;20505;-79
2023/08/27 05:53:05;;;;;;;26.58;16.15;;;;;;;19.84;94.82;98325.94;4888504;29;20047;-79
2023/08/27 05:55:49;;;;;;;27.20;15.25;;;;;;;19.80;94.80;98324.88;4884359;29;20121;-79
2023/08/27 05:58:32;;;;;;;26.40;14.75;;;;;;;20.07;95.55;98329.06;4889623;29;20095;-79
2023/08/27 06:01:17;;;;;;;23.45;14.98;;;;;;;20.29;95.00;98325.22;4888176;29;20047;-78
2023/08/27 06:04:02;;;;;;;23.15;14.38;;;;;;;20.37;94.44;98315.84;4887653;29;20043;-79
2023/08/27 06:06:46;;;;;;;23.13;13.60;;;;;;;20.60;94.44;98319.66;4889191;29;20039;-78
2023/08/27 06:09:30;;;;;;;19.33;12.27;;;;;;;20.72;93.51;98313.19;4887339;29;20052;-78
2023/08/27 06:12:14;;;;;;;21.85;13.88;;;;;;;20.64;94.25;98323.38;4886717;29;20051;-78
2023/08/27 06:14:58;;;;;;;21.00;12.70;;;;;;;20.62;93.62;98317.50;4885403;29;20044;-80
2023/08/27 06:17:42;;;;;;;22.15;13.48;;;;;;;20.25;94.00;98318.84;4890664;29;20055;-81
2023/08/27 06:20:26;;;;;;;19.85;13.10;;;;;;;20.69;93.23;98312.66;4884097;29;20097;-77
2023/08/27 06:23:10;;;;;;;22.70;11.95;;;;;;;20.53;92.44;98321.84;4884138;29;20093;-78
2023/08/27 06:25:54;;;;;;;20.52;12.10;;;;;;;20.69;92.91;98317.19;4886803;29;20044;-79
2023/08/27 06:28:38;;;;;;;19.05;11.57;;;;;;;21.05;91.87;98318.78;4888651;29;20408;-78
2023/08/27 06:31:22;;;;;;;17.00;11.10;;;;;;;21.14;92.52;98321.66;4888515;29;20136;-79
2023/08/27 06:34:06;;;;;;;13.85;9.15;;;;;;;21.38;92.42;98319.78;4886055;29;20052;-78
2023/08/27 06:36:50;;;;;;;13.18;9.27;;;;;;;21.46;91.62;98323.72;4882925;29;20096;-80
2023/08/27 06:39:34;;;;;;;13.13;8.65;;;;;;;21.68;91.27;98309.84;4890564;29;20052;-80
2023/08/27 06:42:18;;;;;;;11.57;8.55;;;;;;;21.51;90.91;98318.31;4886171;29;20066;-80
2023/08/27 06:45:04;;;;;;;12.38;7.00;;;;;;;21.59;91.39;98327.56;4889722;29;20060;-80
2023/08/27 06:47:48;;;;;;;10.57;7.95;;;;;;;21.65;90.81;98313.09;4881750;29;20080;-79
2023/08/27 06:50:32;;;;;;;10.45;7.90;;;;;;;21.71;90.87;98321.03;4888255;29;20480;-80
2023/08/27 06:53:16;;;;;;;12.13;7.60;;;;;;;22.13;89.74;98329.34;4887918;29;20044;-79
2023/08/27 06:56:00;;;;;;;10.93;7.35;;;;;;;21.90;89.73;98321.88;4887654;29;20083;-78
2023/08/27 06:58:45;;;;;;;11.02;7.53;;;;;;;22.24;88.89;98334.25;4884909;29;20071;-80
2023/08/27 07:01:29;;;;;;;11.40;8.25;;;;;;;22.61;88.90;98331.06;4887296;29;20047;-81
2023/08/27 07:04:13;;;;;;;11.05;8.18;;;;;;;22.62;88.10;98335.34;4880609;29;20036;-81
2023/08/27 07:06:57;;;;;;;10.77;6.68;;;;;;;22.85;86.41;98333.63;4887268;29;20503;-80
2023/08/27 07:09:42;;;;;;;8.35;6.80;;;;;;;23.30;84.69;98340.38;4886558;29;20570;-81
2023/08/27 07:12:26;;;;;;;7.80;6.22;;;;;;;23.26;83.88;98326.78;4888407;29;20096;-78
2023/08/27 07:15:10;;;;;;;9.05;5.60;;;;;;;22.76;84.31;98332.69;4880358;29;20047;-79
2023/08/27 07:17:54;;;;;;;8.75;5.63;;;;;;;22.87;85.32;98331.44;4887560;29;20424;-79
2023/08/27 07:20:39;;;;;;;7.25;5.25;;;;;;;23.08;84.58;98336.44;4885312;29;20128;-79
2023/08/27 07:23:23;;;;;;;7.60;3.85;;;;;;;22.85;83.75;98335.50;4886438;29;20127;-79
2023/08/27 07:26:07;;;;;;;6.50;4.10;;;;;;;22.83;84.16;98341.16;4885420;29;20570;-79
2023/08/27 07:28:51;;;;;;;5.38;3.60;;;;;;;22.98;84.52;98334.75;4889602;29;20510;-79
2023/08/27 07:31:35;;;;;;;4.65;3.60;;;;;;;23.21;83.94;98340.25;4882308;29;20079;-78
2023/08/27 07:34:19;;;;;;;5.60;3.58;;;;;;;22.82;84.63;98328.88;4886492;29;20083;-78
2023/08/27 07:37:03;;;;;;;5.43;3.47;;;;;;;23.08;84.79;98326.53;4888035;29;20048;-79
2023/08/27 07:39:47;;;;;;;4.82;3.63;;;;;;;22.15;85.90;98322.63;4889003;29;20546;-79
2023/08/27 07:42:31;;;;;;;4.65;3.55;;;;;;;22.22;86.48;98338.31;4888340;29;20116;-78
2023/08/27 07:45:15;;;;;;;4.07;3.25;;;;;;;22.35;86.67;98336.78;4886313;29;20103;-79
2023/08/27 07:48:00;;;;;;;5.78;3.25;;;;;;;22.37;85.97;98327.38;4887778;29;20542;-81
2023/08/27 07:50:44;;;;;;;4.15;3.00;;;;;;;22.16;85.30;98328.75;4888132;29;20103;-79
2023/08/27 07:53:28;;;;;;;5.38;3.10;;;;;;;22.61;85.49;98328.41;4885773;29;20083;-80
2023/08/27 07:56:12;;;;;;;6.63;3.20;;;;;;;22.48;84.66;98332.59;4879677;29;20051;-78
2023/08/27 07:58:56;;;;;;;3.22;2.80;;;;;;;22.85;84.33;98338.97;4885207;29;20051;-78
2023/08/27 08:01:40;;;;;;;4.53;2.55;;;;;;;23.21;82.87;98330.34;4888175;29;20044;-77
2023/08/27 08:04:25;;;;;;;3.17;2.28;;;;;;;22.91;84.49;98337.81;4880754;29;20422;-79
2023/08/27 08:07:09;;;;;;;2.65;2.25;;;;;;;22.95;83.21;98333.44;4885038;29;20108;-80
2023/08/27 08:09:53;;;;;;;5.60;1.88;;;;;;;22.99;82.24;98332.84;4886825;29;20059;-79
2023/08/27 08:12:37;;;;;;;2.25;1.42;;;;;;;23.30;82.30;98332.34;4886245;29;20128;-80
2023/08/27 08:15:21;;;;;;;1.60;1.50;;;;;;;22.79;83.25;98335.59;4887759;29;20051;-79
2023/08/27 08:18:05;;;;;;;1.77;1.67;;;;;;;23.03;83.05;98333.88;4881883;29;20566;-79
2023/08/27 08:20:52;;;;;;;1.95;1.42;;;;;;;22.75;83.37;98328.44;4883653;29;20049;-79
2023/08/27 08:23:37;;;;;;;1.33;1.10;;;;;;;22.99;83.10;98333.66;4882083;29;20068;-78
2023/08/27 08:26:21;;;;;;;1.75;1.50;;;;;;;22.77;83.59;98334.28;4886042;29;20124;-78
2023/08/27 08:29:05;;;;;;;1.40;1.30;;;;;;;23.04;83.54;98332.78;4886109;29;20403;-80
2023/08/27 08:31:49;;;;;;;0.80;0.80;;;;;;;23.08;84.18;98347.16;4883269;29;20060;-80
2023/08/27 08:34:35;;;;;;;0.80;0.80;;;;;;;23.76;81.84;98350.19;4891146;29;21552;-82
2023/08/27 08:37:19;;;;;;;0.80;0.80;;;;;;;23.40;82.32;98348.25;4885459;29;20395;-79
2023/08/27 08:40:04;;;;;;;1.98;0.73;;;;;;;23.48;82.27;98344.03;4884388;29;20055;-79
2023/08/27 08:42:59;;;;;;;1.65;0.75;;;;;;;23.24;82.44;98342.31;4884195;29;20104;-79
2023/08/27 08:46:03;;;;;;;0.85;0.70;;;;;;;23.70;81.01;98351.41;4881269;29;20573;-81
2023/08/27 08:48:50;;;;;;;1.00;0.90;;;;;;;24.00;81.16;98345.72;4884891;29;20048;-80
2023/08/27 08:51:34;;;;;;;1.40;0.73;;;;;;;23.76;80.40;98342.16;4885459;29;20052;-80
2023/08/27 08:54:25;;;;;;;1.80;0.82;;;;;;;23.86;79.82;98348.41;4879526;29;20047;-81
2023/08/27 08:57:13;;;;;;;1.58;1.00;;;;;;;23.68;80.58;98348.22;4881611;29;21827;-81
2023/08/27 08:59:58;;;;;;;0.60;0.60;;;;;;;23.42;81.06;98351.41;4884660;29;20040;-82
2023/08/27 09:02:42;;;;;;;0.70;0.70;;;;;;;23.68;80.88;98364.31;4884429;29;20052;-82
2023/08/27 09:05:29;;;;;;;0.45;0.45;;;;;;;23.35;81.71;98357.16;4886645;29;20052;-82
2023/08/27 09:08:15;;;;;;;0.70;0.70;;;;;;;23.41;81.92;98357.03;4885787;29;20084;-82
2023/08/27 09:10:59;;;;;;;1.17;1.10;;;;;;;23.68;82.23;98353.59;4883595;29;20051;-83
2023/08/27 09:13:43;;;;;;;1.20;1.10;;;;;;;24.05;82.02;98362.50;4884572;29;20131;-83
2023/08/27 09:16:27;;;;;;;1.70;1.17;;;;;;;24.23;81.56;98363.47;4884373;29;20112;-83
2023/08/27 09:19:11;;;;;;;2.42;1.60;;;;;;;23.39;80.99;98374.22;4887943;29;20599;-82
2023/08/27 09:21:58;;;;;;;1.60;1.50;;;;;;;23.15;82.14;98365.53;4886574;29;20055;-83
2023/08/27 09:24:43;;;;;;;1.50;1.40;;;;;;;23.63;81.37;98373.22;4884920;29;20129;-82
2023/08/27 09:27:28;;;;;;;1.95;1.30;;;;;;;24.48;78.79;98372.03;4888557;29;20147;-82
2023/08/27 09:30:13;;;;;;;2.08;1.40;;;;;;;24.63;78.93;98368.22;4887885;29;20451;-83
2023/08/27 09:32:58;;;;;;;1.65;1.45;;;;;;;24.28;79.50;98369.81;4886109;29;20437;-83
2023/08/27 09:35:41;;;;;;;3.35;1.65;;;;;;;24.94;78.80;98364.78;4886489;29;20040;-82
2023/08/27 09:38:27;;;;;;;2.45;1.10;;;;;;;24.48;79.84;98368.56;4889064;29;20101;-82
2023/08/27 09:41:16;;;;;;;1.10;1.00;;;;;;;23.66;80.83;98361.13;4886298;29;20548;-81
2023/08/27 09:44:00;;;;;;;0.80;0.80;;;;;;;24.04;79.89;98370.84;4887089;29;20051;-82
2023/08/27 09:46:46;;;;;;;1.67;0.80;;;;;;;24.27;79.24;98362.84;4889004;29;20471;-82
2023/08/27 09:49:30;;;;;;;1.27;0.70;;;;;;;24.44;79.82;98360.31;4890811;29;20128;-83
2023/08/27 09:52:22;;;;;;;0.70;0.70;;;;;;;24.72;78.71;98375.50;4889764;29;20055;-84
2023/08/27 09:55:14;;;;;;;0.60;0.60;;;;;;;23.90;78.83;98366.28;4885626;29;20048;-82
2023/08/27 09:57:58;;;;;;;0.70;0.70;;;;;;;24.95;77.92;98366.38;4885157;29;20052;-83
2023/08/27 10:00:42;;;;;;;0.73;0.73;;;;;;;24.55;78.99;98360.09;4887735;29;20056;-82
2023/08/27 10:03:30;;;;;;;0.60;0.55;;;;;;;25.11;78.45;98363.31;4892256;29;20127;-83
2023/08/27 10:06:14;;;;;;;0.55;0.50;;;;;;;25.46;75.95;98358.09;4886656;29;20403;-82
2023/08/27 10:08:58;;;;;;;0.50;0.50;;;;;;;25.47;74.90;98354.34;4888849;29;20047;-82
2023/08/27 10:11:45;;;;;;;1.33;0.68;;;;;;;25.08;75.67;98362.06;4890473;29;20135;-83
2023/08/27 10:14:29;;;;;;;0.68;0.60;;;;;;;24.87;75.73;98369.81;4889766;29;20079;-83
2023/08/27 10:17:15;;;;;;;1.10;0.60;;;;;;;24.86;75.42;98378.97;4882995;29;20111;-82
2023/08/27 10:20:01;;;;;;;0.50;0.50;;;;;;;24.89;75.67;98364.94;4886718;29;20051;-82
2023/08/27 10:22:46;;;;;;;0.50;0.50;;;;;;;25.38;74.56;98378.47;4886307;29;20044;-82
2023/08/27 10:25:32;;;;;;;1.30;0.60;;;;;;;24.21;76.17;98380.97;4886432;29;20056;-82
2023/08/27 10:28:18;;;;;;;0.85;0.70;;;;;;;23.69;77.97;98379.28;4882935;29;20112;-82
2023/08/27 10:31:05;;;;;;;1.10;0.80;;;;;;;23.90;77.15;98366.28;4887075;29;20056;-82
2023/08/27 10:33:49;;;;;;;1.08;0.70;;;;;;;23.82;76.76;98375.00;4884795;29;20108;-81
2023/08/27 10:36:36;;;;;;;1.85;0.70;;;;;;;23.95;77.17;98360.00;4887157;29;20480;-81
2023/08/27 10:39:23;;;;;;;0.80;0.70;;;;;;;23.49;77.45;98367.88;4887035;29;20140;-82
2023/08/27 10:42:07;;;;;;;0.60;0.60;;;;;;;24.03;77.93;98363.91;4887660;29;20125;-82
2023/08/27 10:45:11;;;;;;;0.57;0.57;;;;;;;23.74;78.05;98370.34;4888989;29;20043;-82
2023/08/27 10:48:04;;;;;;;0.93;0.70;;;;;;;24.13;77.37;98370.94;4881516;29;20040;-82
2023/08/27 10:50:51;;;;;;;0.93;0.93;;;;;;;24.00;77.32;98385.91;4886449;29;20120;-81
2023/08/27 10:53:47;;;;;;;0.90;0.70;;;;;;;23.52;78.22;98377.97;4885019;29;20048;-81
2023/08/27 10:56:38;;;;;;;2.60;0.95;;;;;;;23.60;81.36;98379.19;4888257;29;20468;-81
2023/08/27 10:59:28;;;;;;;1.02;0.70;;;;;;;23.58;82.06;98378.69;4891832;29;20047;-81
2023/08/27 11:02:14;;;;;;;1.85;1.20;;;;;;;22.68;85.86;98385.78;4887323;29;20105;-81
2023/08/27 11:05:05;;;;;;;4.88;3.38;;;;;;;22.74;85.69;98396.41;4886273;29;20052;-81
2023/08/27 11:07:51;;;;;;;1.92;1.00;;;;;;;22.39;86.76;98397.38;4887021;29;20518;-81
2023/08/27 11:10:39;;;;;;;1.75;0.77;;;;;;;22.94;85.59;98396.09;4884790;29;20096;-82
2023/08/27 11:13:36;;;;;;;0.85;0.70;;;;;;;22.34;85.70;98397.47;4885763;29;20089;-81
2023/08/27 11:16:21;;;;;;;2.42;1.05;;;;;;;22.18;85.14;98406.75;4886187;29;20044;-81
2023/08/27 11:19:09;;;;;;;2.90;1.08;;;;;;;22.16;85.44;98404.41;4885047;29;20518;-81
2023/08/27 11:22:04;;;;;;;1.55;0.90;;;;;;;22.26;85.13;98406.16;4883617;29;20043;-82
2023/08/27 11:24:53;;;;;;;3.10;1.88;;;;;;;22.40;84.67;98424.94;4884734;29;20467;-81
2023/08/27 11:27:37;;;;;;;5.10;1.50;;;;;;;22.83;84.90;98390.09;4883870;29;20048;-82
2023/08/27 11:30:25;;;;;;;4.05;1.40;;;;;;;22.68;84.38;98398.34;4885983;29;20122;-81
2023/08/27 11:33:14;;;;;;;2.67;1.10;;;;;;;22.16;83.75;98398.25;4882483;29;20096;-82
2023/08/27 11:35:58;;;;;;;2.35;1.23;;;;;;;22.35;82.19;98408.97;4889096;29;20108;-83
2023/08/27 11:38:42;;;;;;;3.22;1.48;;;;;;;22.07;82.56;98420.28;4886183;29;20412;-84
2023/08/27 11:41:32;;;;;;;;;;;;;;;22.37;83.56;98410.25;4886506;29;20095;-82
2023/08/27 11:44:17;;;;;;;2.22;1.48;;;;;;;21.96;84.78;98408.09;4888981;29;19938;-81
2023/08/27 11:47:07;;;;;;;3.15;1.38;;;;;;;22.17;84.08;98402.50;4886805;29;20044;-83
2023/08/27 11:49:58;;;;;;;5.22;1.40;;;;;;;22.48;82.97;98404.81;4883611;29;20120;-82
2023/08/27 11:52:43;;;;;;;2.08;1.00;;;;;;;22.25;82.04;98417.91;4888697;29;20054;-82
2023/08/27 11:55:27;;;;;;;3.38;1.20;;;;;;;22.79;83.17;98415.84;4889888;29;20056;-82
2023/08/27 11:58:18;;;;;;;2.88;1.20;;;;;;;23.18;82.40;98419.25;4885654;29;20517;-83
2023/08/27 12:01:01;;;;;;;1.30;1.20;;;;;;;22.55;81.97;98421.28;4884343;29;20109;-82
2023/08/27 12:03:49;;;;;;;2.22;1.08;;;;;;;23.08;80.64;98422.88;4884818;29;20067;-81
2023/08/27 12:06:33;;;;;;;2.33;1.23;;;;;;;22.32;81.51;98434.38;4884507;29;20129;-81
2023/08/27 12:09:25;;;;;;;1.27;1.15;;;;;;;22.21;80.04;98446.31;4886891;29;20597;-82
2023/08/27 12:12:09;;;;;;;3.97;1.65;;;;;;;22.79;79.56;98436.44;4884645;29;20447;-81
2023/08/27 12:14:53;;;;;;;2.33;1.17;;;;;;;22.48;79.51;98439.56;4880397;29;20484;-80
2023/08/27 12:17:37;;;;;;;1.08;0.98;;;;;;;22.90;79.84;98427.19;4881183;29;20070;-84
2023/08/27 12:20:31;;;;;;;2.63;1.27;;;;;;;23.49;78.49;98442.88;4879722;29;20104;-80
2023/08/27 12:23:16;;;;;;;5.97;1.48;;;;;;;23.64;78.11;98427.63;4882615;29;20213;-81
2023/08/27 12:26:02;;;;;;;2.10;1.25;;;;;;;24.39;76.67;98433.66;4878367;29;20109;-81
2023/08/27 12:28:53;;;;;;;2.70;1.30;;;;;;;23.88;76.24;98435.47;4884650;29;20097;-81
2023/08/27 12:31:37;;;;;;;1.70;1.33;;;;;;;23.73;76.55;98436.53;4880417;29;20091;-79
2023/08/27 12:34:42;;;;;;;6.75;1.60;;;;;;;23.88;76.21;98435.47;4890166;29;20059;-78
2023/08/27 12:37:26;;;;;;;2.95;1.25;;;;;;;24.05;75.72;98436.75;4878730;29;20036;-77
2023/08/27 12:40:11;;;;;;;3.42;1.60;;;;;;;23.89;76.57;98444.28;4883006;29;20105;-79
2023/08/27 12:42:55;;;;;;;3.38;1.50;;;;;;;24.43;75.26;98444.56;4876539;29;20052;-78
2023/08/27 12:45:39;;;;;;;2.78;1.65;;;;;;;23.16;76.86;98445.50;4880775;29;20496;-80
2023/08/27 12:48:23;;;;;;;5.05;1.40;;;;;;;22.68;77.76;98447.31;4881128;29;20048;-79
2023/08/27 12:51:07;;;;;;;1.73;1.20;;;;;;;23.20;76.61;98440.38;4879690;29;20559;-81
2023/08/27 12:53:51;;;;;;;2.70;1.20;;;;;;;23.52;75.50;98446.84;4888627;29;20576;-78